createdAt,value
2019-02-25T00:00:30.406Z,6.3
2019-02-25T00:01:10.990Z,6.33
2019-02-25T00:01:51.576Z,6.28
2019-02-25T00:02:32.138Z,6.36
2019-02-25T00:03:12.802Z,6.28
2019-02-25T00:03:53.380Z,6.3
2019-02-25T00:04:33.963Z,6.26
2019-02-25T00:05:14.598Z,6.31
2019-02-25T00:05:55.148Z,6.26
2019-02-25T00:06:35.765Z,6.35
2019-02-25T00:07:16.310Z,6.26
2019-02-25T00:07:56.951Z,6.28
2019-02-25T00:08:37.473Z,6.3
2019-02-25T00:09:18.033Z,6.28
2019-02-25T00:09:58.633Z,6.3
2019-02-25T00:10:39.229Z,6.26
2019-02-25T00:11:19.805Z,6.26
2019-02-25T00:12:00.362Z,6.31
2019-02-25T00:12:40.918Z,6.28
2019-02-25T00:13:21.478Z,6.27
2019-02-25T00:14:02.056Z,6.27
2019-02-25T00:14:42.677Z,6.31
2019-02-25T00:15:23.235Z,6.24
2019-02-25T00:16:03.786Z,6.3
2019-02-25T00:16:44.338Z,6.27
2019-02-25T00:17:24.905Z,6.33
2019-02-25T00:18:05.532Z,6.24
2019-02-25T00:18:46.109Z,6.22
2019-02-25T00:19:26.674Z,6.19
2019-02-25T00:20:07.258Z,6.2
2019-02-25T00:20:47.828Z,6.27
2019-02-25T00:21:28.401Z,6.14
2019-02-25T00:22:08.974Z,6.22
2019-02-25T00:22:49.548Z,6.3
2019-02-25T00:23:30.175Z,6.14
2019-02-25T00:24:10.806Z,6.28
2019-02-25T00:24:51.380Z,6.14
2019-02-25T00:25:31.949Z,6.12
2019-02-25T00:26:12.516Z,6.14
2019-02-25T00:26:53.107Z,6.09
2019-02-25T00:27:33.688Z,6.12
2019-02-25T00:28:14.256Z,6.16
2019-02-25T00:28:54.830Z,6.17
2019-02-25T00:29:35.396Z,6.12
2019-02-25T00:30:15.959Z,6.11
2019-02-25T00:30:56.513Z,6.11
2019-02-25T00:31:37.068Z,6.11
2019-02-25T00:32:17.636Z,6.12
2019-02-25T00:32:58.200Z,6.02
2019-02-25T00:33:38.770Z,6.14
2019-02-25T00:34:19.357Z,6.16
2019-02-25T00:34:59.929Z,6.08
2019-02-25T00:35:40.477Z,6.14
2019-02-25T00:36:21.071Z,6.02
2019-02-25T00:37:01.633Z,6.14
2019-02-25T00:37:42.184Z,6.07
2019-02-25T00:38:22.743Z,6.12
2019-02-25T00:39:03.316Z,6.07
2019-02-25T00:39:43.960Z,5.9
2019-02-25T00:40:24.522Z,6.02
2019-02-25T00:41:05.127Z,5.98
2019-02-25T00:41:45.688Z,6.05
2019-02-25T00:42:26.248Z,6.04
2019-02-25T00:43:06.830Z,6.01
2019-02-25T00:43:47.390Z,6.01
2019-02-25T00:44:27.951Z,6.02
2019-02-25T00:45:08.519Z,5.98
2019-02-25T00:45:49.102Z,6.05
2019-02-25T00:46:29.679Z,6.05
2019-02-25T00:47:10.248Z,6.02
2019-02-25T00:47:50.796Z,5.99
2019-02-25T00:48:31.368Z,5.99
2019-02-25T00:49:11.923Z,5.99
2019-02-25T00:49:52.500Z,6.07
2019-02-25T00:50:33.092Z,6.01
2019-02-25T00:51:13.634Z,5.93
2019-02-25T00:51:54.223Z,5.98
2019-02-25T00:52:34.791Z,5.97
2019-02-25T00:53:15.358Z,5.93
2019-02-25T00:53:55.931Z,5.97
2019-02-25T00:54:36.511Z,5.91
2019-02-25T00:55:17.082Z,5.97
2019-02-25T00:55:57.658Z,5.9
2019-02-25T00:56:38.253Z,5.97
2019-02-25T00:57:18.813Z,5.97
2019-02-25T00:57:59.407Z,5.94
2019-02-25T00:58:39.986Z,5.97
2019-02-25T00:59:20.566Z,5.93
2019-02-25T01:00:01.188Z,5.91
2019-02-25T01:00:41.734Z,5.91
2019-02-25T01:01:22.315Z,5.94
2019-02-25T01:02:02.882Z,5.91
2019-02-25T01:02:43.440Z,5.94
2019-02-25T01:03:24.010Z,5.97
2019-02-25T01:04:04.565Z,5.93
2019-02-25T01:04:45.169Z,5.98
2019-02-25T01:05:25.778Z,5.93
2019-02-25T01:06:06.348Z,5.97
2019-02-25T01:06:46.931Z,6.01
2019-02-25T01:07:27.492Z,5.97
2019-02-25T01:08:08.085Z,5.93
2019-02-25T01:08:48.623Z,5.9
2019-02-25T01:09:29.220Z,5.94
2019-02-25T01:10:09.780Z,5.91
2019-02-25T01:10:50.338Z,5.93
2019-02-25T01:11:30.896Z,5.99
2019-02-25T01:12:11.493Z,5.89
2019-02-25T01:12:52.050Z,5.94
2019-02-25T01:13:32.599Z,5.93
2019-02-25T01:14:13.172Z,5.91
2019-02-25T01:14:53.741Z,5.79
2019-02-25T01:15:34.326Z,5.86
2019-02-25T01:16:14.903Z,5.8
2019-02-25T01:16:55.457Z,5.87
2019-02-25T01:17:36.012Z,5.83
2019-02-25T01:18:16.581Z,5.83
2019-02-25T01:18:57.130Z,5.72
2019-02-25T01:19:37.687Z,5.8
2019-02-25T01:20:18.247Z,5.72
2019-02-25T01:20:58.809Z,5.75
2019-02-25T01:21:39.371Z,5.72
2019-02-25T01:22:19.953Z,5.76
2019-02-25T01:23:00.533Z,5.73
2019-02-25T01:23:41.108Z,5.76
2019-02-25T01:24:21.723Z,5.71
2019-02-25T01:25:02.301Z,5.72
2019-02-25T01:25:42.865Z,5.72
2019-02-25T01:26:23.428Z,5.66
2019-02-25T01:27:06.564Z,5.73
2019-02-25T01:27:47.120Z,5.69
2019-02-25T01:28:27.687Z,5.75
2019-02-25T01:29:08.244Z,5.73
2019-02-25T01:29:48.820Z,5.66
2019-02-25T01:30:29.399Z,5.68
2019-02-25T01:31:09.997Z,5.68
2019-02-25T01:31:50.561Z,5.72
2019-02-25T01:32:31.132Z,5.69
2019-02-25T01:33:11.693Z,5.71
2019-02-25T01:33:52.249Z,5.68
2019-02-25T01:34:32.833Z,5.68
2019-02-25T01:35:13.425Z,5.71
2019-02-25T01:35:53.979Z,5.73
2019-02-25T01:36:34.537Z,5.73
2019-02-25T01:37:15.107Z,5.69
2019-02-25T01:37:55.684Z,5.66
2019-02-25T01:38:36.274Z,5.71
2019-02-25T01:39:16.948Z,5.62
2019-02-25T01:39:57.501Z,5.71
2019-02-25T01:40:38.093Z,5.71
2019-02-25T01:41:18.684Z,5.64
2019-02-25T01:41:59.269Z,5.64
2019-02-25T01:42:39.840Z,5.62
2019-02-25T01:43:20.399Z,5.62
2019-02-25T01:44:00.966Z,5.64
2019-02-25T01:44:41.531Z,5.68
2019-02-25T01:45:22.123Z,5.65
2019-02-25T01:46:02.688Z,5.65
2019-02-25T01:46:43.256Z,5.68
2019-02-25T01:47:23.813Z,5.64
2019-02-25T01:48:04.374Z,5.64
2019-02-25T01:48:44.928Z,5.64
2019-02-25T01:49:25.506Z,5.65
2019-02-25T01:50:06.118Z,5.64
2019-02-25T01:50:46.666Z,5.62
2019-02-25T01:51:27.230Z,5.64
2019-02-25T01:52:07.831Z,5.62
2019-02-25T01:52:48.423Z,5.59
2019-02-25T01:53:28.980Z,5.53
2019-02-25T01:54:09.527Z,5.64
2019-02-25T01:54:50.079Z,5.64
2019-02-25T01:55:30.646Z,5.59
2019-02-25T01:56:11.205Z,5.56
2019-02-25T01:56:51.753Z,5.51
2019-02-25T01:57:32.323Z,5.53
2019-02-25T01:58:12.935Z,5.53
2019-02-25T01:58:53.536Z,5.47
2019-02-25T01:59:34.096Z,5.47
2019-02-25T02:00:15.007Z,5.54
2019-02-25T02:00:55.591Z,5.56
2019-02-25T02:01:36.156Z,5.53
2019-02-25T02:02:16.744Z,5.51
2019-02-25T02:02:57.295Z,5.53
2019-02-25T02:03:37.847Z,5.46
2019-02-25T02:04:18.454Z,5.53
2019-02-25T02:04:59.058Z,5.54
2019-02-25T02:05:39.648Z,5.47
2019-02-25T02:06:20.213Z,5.47
2019-02-25T02:07:00.833Z,5.53
2019-02-25T02:07:41.385Z,5.48
2019-02-25T02:08:21.949Z,5.46
2019-02-25T02:09:02.500Z,5.44
2019-02-25T02:09:43.079Z,5.38
2019-02-25T02:10:23.686Z,5.36
2019-02-25T02:11:04.282Z,5.46
2019-02-25T02:11:44.859Z,5.38
2019-02-25T02:12:25.421Z,5.39
2019-02-25T02:13:13.881Z,5.44
2019-02-25T02:13:46.652Z,5.46
2019-02-25T02:14:27.211Z,5.43
2019-02-25T02:15:07.819Z,5.38
2019-02-25T02:15:48.356Z,5.43
2019-02-25T02:16:28.930Z,5.43
2019-02-25T02:17:09.504Z,5.51
2019-02-25T02:17:50.055Z,5.39
2019-02-25T02:18:30.609Z,5.41
2019-02-25T02:19:11.177Z,5.43
2019-02-25T02:19:51.747Z,5.44
2019-02-25T02:20:32.340Z,5.48
2019-02-25T02:21:12.908Z,5.54
2019-02-25T02:21:53.461Z,5.46
2019-02-25T02:22:34.055Z,5.43
2019-02-25T02:23:14.634Z,5.51
2019-02-25T02:23:55.208Z,5.47
2019-02-25T02:24:35.763Z,5.39
2019-02-25T02:25:16.348Z,5.47
2019-02-25T02:25:56.939Z,5.53
2019-02-25T02:26:37.502Z,5.44
2019-02-25T02:27:18.075Z,5.53
2019-02-25T02:27:58.634Z,5.41
2019-02-25T02:28:39.187Z,5.47
2019-02-25T02:29:19.752Z,5.47
2019-02-25T02:30:00.431Z,5.43
2019-02-25T02:30:40.879Z,5.53
2019-02-25T02:31:21.449Z,5.38
2019-02-25T02:32:02.032Z,5.38
2019-02-25T02:32:42.582Z,5.46
2019-02-25T02:33:23.146Z,5.43
2019-02-25T02:34:03.694Z,5.41
2019-02-25T02:34:44.413Z,5.47
2019-02-25T02:35:24.988Z,5.39
2019-02-25T02:36:05.563Z,5.5
2019-02-25T02:36:46.101Z,5.39
2019-02-25T02:37:26.661Z,5.48
2019-02-25T02:38:07.219Z,5.46
2019-02-25T02:38:47.833Z,5.51
2019-02-25T02:39:28.378Z,5.46
2019-02-25T02:40:08.952Z,5.29
2019-02-25T02:40:49.509Z,5.47
2019-02-25T02:41:30.065Z,5.47
2019-02-25T02:42:10.630Z,5.43
2019-02-25T02:42:51.218Z,5.36
2019-02-25T02:43:31.780Z,5.41
2019-02-25T02:44:12.336Z,5.41
2019-02-25T02:44:52.908Z,5.39
2019-02-25T02:45:33.445Z,5.43
2019-02-25T02:46:13.999Z,5.39
2019-02-25T02:46:54.540Z,5.41
2019-02-25T02:47:35.106Z,5.39
2019-02-25T02:48:15.655Z,5.39
2019-02-25T02:48:56.203Z,5.35
2019-02-25T02:49:36.762Z,5.44
2019-02-25T02:50:17.334Z,5.41
2019-02-25T02:50:57.885Z,5.44
2019-02-25T02:51:38.437Z,5.43
2019-02-25T02:52:19.002Z,5.35
2019-02-25T02:52:59.590Z,5.41
2019-02-25T02:53:40.171Z,5.36
2019-02-25T02:54:20.791Z,5.36
2019-02-25T02:55:01.351Z,5.33
2019-02-25T02:55:41.918Z,5.33
2019-02-25T02:56:22.526Z,5.35
2019-02-25T02:57:03.066Z,5.32
2019-02-25T02:57:43.609Z,5.33
2019-02-25T02:58:24.168Z,5.3
2019-02-25T02:59:04.746Z,5.33
2019-02-25T02:59:45.333Z,5.33
2019-02-25T03:00:26.539Z,5.29
2019-02-25T03:01:07.114Z,5.33
2019-02-25T03:01:47.674Z,5.29
2019-02-25T03:02:28.242Z,5.33
2019-02-25T03:03:08.866Z,5.23
2019-02-25T03:03:49.421Z,5.36
2019-02-25T03:04:29.969Z,5.35
2019-02-25T03:05:10.552Z,5.35
2019-02-25T03:05:51.124Z,5.33
2019-02-25T03:06:31.672Z,5.33
2019-02-25T03:07:12.258Z,5.3
2019-02-25T03:07:52.836Z,5.3
2019-02-25T03:08:33.404Z,5.23
2019-02-25T03:09:13.960Z,5.23
2019-02-25T03:09:54.585Z,5.23
2019-02-25T03:10:35.154Z,5.21
2019-02-25T03:11:15.732Z,5.29
2019-02-25T03:11:56.285Z,5.21
2019-02-25T03:12:36.850Z,5.21
2019-02-25T03:13:17.416Z,5.26
2019-02-25T03:13:58.014Z,5.23
2019-02-25T03:14:38.632Z,5.26
2019-02-25T03:15:19.197Z,5.23
2019-02-25T03:15:59.786Z,5.25
2019-02-25T03:16:40.373Z,5.26
2019-02-25T03:17:20.942Z,5.26
2019-02-25T03:18:01.497Z,5.26
2019-02-25T03:18:42.052Z,5.23
2019-02-25T03:19:22.644Z,5.3
2019-02-25T03:20:03.283Z,5.2
2019-02-25T03:20:43.895Z,5.21
2019-02-25T03:21:24.470Z,5.21
2019-02-25T03:22:05.028Z,5.2
2019-02-25T03:22:45.626Z,5.3
2019-02-25T03:23:26.194Z,5.21
2019-02-25T03:24:06.752Z,5.21
2019-02-25T03:24:47.358Z,5.23
2019-02-25T03:25:27.939Z,5.28
2019-02-25T03:26:08.498Z,5.23
2019-02-25T03:26:49.136Z,5.21
2019-02-25T03:27:29.693Z,5.26
2019-02-25T03:28:10.241Z,5.23
2019-02-25T03:28:50.790Z,5.26
2019-02-25T03:29:31.346Z,5.25
2019-02-25T03:30:11.909Z,5.25
2019-02-25T03:30:52.459Z,5.21
2019-02-25T03:31:33.031Z,5.23
2019-02-25T03:32:13.582Z,5.18
2019-02-25T03:32:54.181Z,5.17
2019-02-25T03:33:34.730Z,5.26
2019-02-25T03:34:15.311Z,5.23
2019-02-25T03:34:55.861Z,5.14
2019-02-25T03:35:36.451Z,5.21
2019-02-25T03:36:17.032Z,5.15
2019-02-25T03:36:57.577Z,5.17
2019-02-25T03:37:38.130Z,5.18
2019-02-25T03:38:18.714Z,5.11
2019-02-25T03:38:59.276Z,5.17
2019-02-25T03:39:39.830Z,5.28
2019-02-25T03:40:20.413Z,5.23
2019-02-25T03:41:00.971Z,5.21
2019-02-25T03:41:41.534Z,5.23
2019-02-25T03:42:22.116Z,5.21
2019-02-25T03:43:02.678Z,5.2
2019-02-25T03:43:43.239Z,5.17
2019-02-25T03:44:23.850Z,5.18
2019-02-25T03:45:04.414Z,5.28
2019-02-25T03:45:44.969Z,5.18
2019-02-25T03:46:25.536Z,5.2
2019-02-25T03:47:06.091Z,5.18
2019-02-25T03:47:46.675Z,5.17
2019-02-25T03:48:27.266Z,5.14
2019-02-25T03:49:07.808Z,5.14
2019-02-25T03:49:48.454Z,5.23
2019-02-25T03:50:29.007Z,5.18
2019-02-25T03:51:09.583Z,5.17
2019-02-25T03:51:50.122Z,5.15
2019-02-25T03:52:30.689Z,5.14
2019-02-25T03:53:11.268Z,5.12
2019-02-25T03:53:51.828Z,5.1
2019-02-25T03:54:32.415Z,5.2
2019-02-25T03:55:12.980Z,5.05
2019-02-25T03:55:53.553Z,5.02
2019-02-25T03:56:34.102Z,5.08
2019-02-25T03:57:14.661Z,5.1
2019-02-25T03:57:55.210Z,5.14
2019-02-25T03:58:35.761Z,5.11
2019-02-25T03:59:16.317Z,5.15
2019-02-25T03:59:56.921Z,5.02
2019-02-25T04:00:37.885Z,5.11
2019-02-25T04:01:18.450Z,5.08
2019-02-25T04:01:59.004Z,5.07
2019-02-25T04:02:39.562Z,5.04
2019-02-25T04:03:20.119Z,5.08
2019-02-25T04:04:00.669Z,5.08
2019-02-25T04:04:41.236Z,5.04
2019-02-25T04:05:21.786Z,5.07
2019-02-25T04:06:02.369Z,5.12
2019-02-25T04:06:42.968Z,5.1
2019-02-25T04:07:23.514Z,5.07
2019-02-25T04:08:04.071Z,5.02
2019-02-25T04:08:44.620Z,4.99
2019-02-25T04:09:25.232Z,5.04
2019-02-25T04:10:05.732Z,5.07
2019-02-25T04:10:46.313Z,5
2019-02-25T04:11:26.928Z,4.96
2019-02-25T04:12:07.514Z,4.96
2019-02-25T04:12:48.078Z,4.94
2019-02-25T04:13:28.648Z,4.94
2019-02-25T04:14:09.221Z,5.04
2019-02-25T04:14:49.766Z,4.92
2019-02-25T04:15:30.332Z,4.97
2019-02-25T04:16:10.907Z,4.93
2019-02-25T04:16:51.508Z,4.94
2019-02-25T04:17:32.098Z,4.94
2019-02-25T04:18:12.665Z,4.94
2019-02-25T04:18:53.244Z,4.97
2019-02-25T04:19:33.826Z,4.94
2019-02-25T04:20:14.415Z,4.96
2019-02-25T04:20:54.972Z,4.93
2019-02-25T04:21:35.534Z,5
2019-02-25T04:22:16.121Z,4.93
2019-02-25T04:22:56.704Z,4.96
2019-02-25T04:23:37.260Z,4.93
2019-02-25T04:24:17.811Z,4.94
2019-02-25T04:24:58.472Z,4.9
2019-02-25T04:25:39.051Z,4.96
2019-02-25T04:26:19.669Z,4.9
2019-02-25T04:27:00.222Z,4.96
2019-02-25T04:27:40.800Z,4.96
2019-02-25T04:28:21.361Z,5
2019-02-25T04:29:01.931Z,5.02
2019-02-25T04:29:42.495Z,4.99
2019-02-25T04:30:23.062Z,4.84
2019-02-25T04:31:03.656Z,4.94
2019-02-25T04:31:44.284Z,4.96
2019-02-25T04:32:24.851Z,4.93
2019-02-25T04:33:05.428Z,4.92
2019-02-25T04:33:46.006Z,4.94
2019-02-25T04:34:26.574Z,4.94
2019-02-25T04:35:07.151Z,4.94
2019-02-25T04:35:47.726Z,4.94
2019-02-25T04:36:28.331Z,4.94
2019-02-25T04:37:08.898Z,4.99
2019-02-25T04:37:49.474Z,4.96
2019-02-25T04:38:30.048Z,4.92
2019-02-25T04:39:10.616Z,4.99
2019-02-25T04:39:51.169Z,5
2019-02-25T04:40:31.731Z,4.87
2019-02-25T04:41:12.291Z,4.93
2019-02-25T04:41:52.881Z,4.96
2019-02-25T04:42:33.481Z,4.94
2019-02-25T04:43:14.046Z,4.99
2019-02-25T04:43:54.624Z,4.99
2019-02-25T04:44:35.186Z,4.94
2019-02-25T04:45:15.755Z,4.96
2019-02-25T04:45:56.329Z,4.94
2019-02-25T04:46:36.894Z,4.93
2019-02-25T04:47:17.461Z,5
2019-02-25T04:47:58.090Z,4.92
2019-02-25T04:48:38.659Z,4.94
2019-02-25T04:49:19.217Z,4.92
2019-02-25T04:49:59.769Z,4.96
2019-02-25T04:50:40.333Z,4.87
2019-02-25T04:51:20.939Z,4.87
2019-02-25T04:52:01.513Z,4.92
2019-02-25T04:52:42.075Z,4.92
2019-02-25T04:53:22.633Z,4.8
2019-02-25T04:54:03.207Z,4.87
2019-02-25T04:54:43.824Z,4.87
2019-02-25T04:55:24.369Z,4.86
2019-02-25T04:56:04.922Z,4.84
2019-02-25T04:56:45.478Z,4.92
2019-02-25T04:57:26.039Z,4.9
2019-02-25T04:58:06.634Z,4.89
2019-02-25T04:58:47.236Z,4.92
2019-02-25T04:59:27.838Z,4.9
2019-02-25T05:00:08.373Z,4.87
2019-02-25T05:00:48.971Z,4.92
2019-02-25T05:01:29.545Z,4.9
2019-02-25T05:02:10.107Z,4.94
2019-02-25T05:02:50.723Z,4.9
2019-02-25T05:03:31.277Z,4.93
2019-02-25T05:04:11.849Z,4.94
2019-02-25T05:04:52.386Z,4.94
2019-02-25T05:05:33.025Z,4.86
2019-02-25T05:06:13.562Z,4.87
2019-02-25T05:06:54.132Z,4.89
2019-02-25T05:07:34.688Z,4.74
2019-02-25T05:08:15.244Z,4.7
2019-02-25T05:08:55.845Z,4.75
2019-02-25T05:09:36.409Z,4.75
2019-02-25T05:10:16.969Z,4.74
2019-02-25T05:10:57.562Z,4.74
2019-02-25T05:11:38.110Z,4.73
2019-02-25T05:12:18.676Z,4.74
2019-02-25T05:12:59.236Z,4.7
2019-02-25T05:13:39.791Z,4.73
2019-02-25T05:14:20.354Z,4.63
2019-02-25T05:15:00.909Z,4.63
2019-02-25T05:15:41.490Z,4.71
2019-02-25T05:16:22.041Z,4.67
2019-02-25T05:17:02.808Z,4.67
2019-02-25T05:17:43.301Z,4.7
2019-02-25T05:18:23.869Z,4.7
2019-02-25T05:19:04.476Z,4.67
2019-02-25T05:19:45.005Z,4.63
2019-02-25T05:20:25.564Z,4.68
2019-02-25T05:21:06.139Z,4.6
2019-02-25T05:21:46.721Z,4.6
2019-02-25T05:22:27.308Z,4.68
2019-02-25T05:23:07.878Z,4.68
2019-02-25T05:23:48.455Z,4.6
2019-02-25T05:24:29.029Z,4.68
2019-02-25T05:25:09.605Z,4.66
2019-02-25T05:25:50.214Z,4.63
2019-02-25T05:26:30.782Z,4.78
2019-02-25T05:27:11.368Z,4.55
2019-02-25T05:27:51.948Z,4.73
2019-02-25T05:28:32.513Z,4.62
2019-02-25T05:29:13.073Z,4.71
2019-02-25T05:29:53.623Z,4.68
2019-02-25T05:30:34.185Z,4.73
2019-02-25T05:31:14.746Z,4.74
2019-02-25T05:31:55.315Z,4.77
2019-02-25T05:32:35.875Z,4.75
2019-02-25T05:33:16.449Z,4.73
2019-02-25T05:33:57.029Z,4.71
2019-02-25T05:34:37.567Z,4.73
2019-02-25T05:35:18.119Z,4.68
2019-02-25T05:35:58.718Z,4.78
2019-02-25T05:36:39.458Z,4.67
2019-02-25T05:37:20.051Z,4.66
2019-02-25T05:38:00.611Z,4.66
2019-02-25T05:38:41.151Z,4.71
2019-02-25T05:39:21.735Z,4.63
2019-02-25T05:40:02.296Z,4.6
2019-02-25T05:40:42.888Z,4.63
2019-02-25T05:41:23.437Z,4.62
2019-02-25T05:42:04.001Z,4.63
2019-02-25T05:42:44.560Z,4.63
2019-02-25T05:43:25.120Z,4.6
2019-02-25T05:44:05.649Z,4.66
2019-02-25T05:44:46.201Z,4.63
2019-02-25T05:45:26.756Z,4.67
2019-02-25T05:46:07.328Z,4.59
2019-02-25T05:46:47.914Z,4.62
2019-02-25T05:47:28.532Z,4.68
2019-02-25T05:48:09.031Z,4.63
2019-02-25T05:48:49.603Z,4.66
2019-02-25T05:49:30.163Z,4.6
2019-02-25T05:50:10.712Z,4.59
2019-02-25T05:50:51.269Z,4.63
2019-02-25T05:51:31.834Z,4.6
2019-02-25T05:52:12.400Z,4.55
2019-02-25T05:52:53.247Z,4.56
2019-02-25T05:53:34.068Z,4.56
2019-02-25T05:54:14.672Z,4.62
2019-02-25T05:54:55.481Z,4.67
2019-02-25T05:55:36.033Z,4.6
2019-02-25T05:56:16.591Z,4.55
2019-02-25T05:56:57.165Z,4.59
2019-02-25T05:57:37.773Z,4.63
2019-02-25T05:58:18.337Z,4.59
2019-02-25T05:58:58.926Z,4.63
2019-02-25T05:59:39.479Z,4.58
2019-02-25T06:00:20.773Z,4.55
2019-02-25T06:01:01.350Z,4.55
2019-02-25T06:01:41.940Z,4.58
2019-02-25T06:02:22.548Z,4.6
2019-02-25T06:03:03.122Z,4.55
2019-02-25T06:03:43.694Z,4.53
2019-02-25T06:04:24.257Z,4.55
2019-02-25T06:05:04.844Z,4.52
2019-02-25T06:05:45.403Z,4.53
2019-02-25T06:06:26.015Z,4.52
2019-02-25T06:07:06.582Z,4.5
2019-02-25T06:07:47.172Z,4.53
2019-02-25T06:08:27.728Z,4.55
2019-02-25T06:09:08.288Z,4.52
2019-02-25T06:09:49.740Z,4.56
2019-02-25T06:10:30.309Z,4.53
2019-02-25T06:11:10.922Z,4.5
2019-02-25T06:11:51.494Z,4.5
2019-02-25T06:12:32.089Z,4.53
2019-02-25T06:13:12.662Z,4.55
2019-02-25T06:13:53.237Z,4.63
2019-02-25T06:14:33.797Z,4.66
2019-02-25T06:15:14.403Z,4.63
2019-02-25T06:15:54.950Z,4.63
2019-02-25T06:16:35.558Z,4.59
2019-02-25T06:17:16.125Z,4.62
2019-02-25T06:17:56.690Z,4.59
2019-02-25T06:18:37.245Z,4.58
2019-02-25T06:19:17.859Z,4.66
2019-02-25T06:19:58.404Z,4.67
2019-02-25T06:20:38.963Z,4.67
2019-02-25T06:21:19.513Z,4.59
2019-02-25T06:22:00.086Z,4.62
2019-02-25T06:22:40.636Z,4.63
2019-02-25T06:23:21.228Z,4.62
2019-02-25T06:24:01.793Z,4.84
2019-02-25T06:24:42.322Z,4.99
2019-02-25T06:25:22.960Z,5.21
2019-02-25T06:26:03.522Z,5.41
2019-02-25T06:26:44.098Z,5.43
2019-02-25T06:27:30.577Z,5.54
2019-02-25T06:28:05.276Z,5.46
2019-02-25T06:28:45.843Z,5.43
2019-02-25T06:29:26.405Z,5.36
2019-02-25T06:30:06.970Z,5.44
2019-02-25T06:30:47.584Z,5.36
2019-02-25T06:31:28.145Z,5.36
2019-02-25T06:32:08.721Z,5.33
2019-02-25T06:32:49.288Z,5.29
2019-02-25T06:33:29.903Z,5.25
2019-02-25T06:34:10.520Z,5.23
2019-02-25T06:34:51.091Z,5.25
2019-02-25T06:35:31.635Z,5.17
2019-02-25T06:36:12.233Z,5.15
2019-02-25T06:36:52.804Z,5.14
2019-02-25T06:37:33.352Z,5.14
2019-02-25T06:38:13.929Z,5.14
2019-02-25T06:38:54.470Z,5.1
2019-02-25T06:39:35.032Z,5.07
2019-02-25T06:40:16.039Z,5
2019-02-25T06:40:56.186Z,5.07
2019-02-25T06:41:36.734Z,5.07
2019-02-25T06:42:17.301Z,4.93
2019-02-25T06:42:57.906Z,4.94
2019-02-25T06:43:38.469Z,5.04
2019-02-25T06:44:19.064Z,5.05
2019-02-25T06:44:59.636Z,4.97
2019-02-25T06:45:40.201Z,4.94
2019-02-25T06:46:20.758Z,4.96
2019-02-25T06:47:01.364Z,4.96
2019-02-25T06:47:41.923Z,4.92
2019-02-25T06:48:22.503Z,4.94
2019-02-25T06:49:03.052Z,4.97
2019-02-25T06:49:43.659Z,4.9
2019-02-25T06:50:24.259Z,4.9
2019-02-25T06:51:04.895Z,4.96
2019-02-25T06:51:45.546Z,4.87
2019-02-25T06:52:26.136Z,4.94
2019-02-25T06:53:06.703Z,4.92
2019-02-25T06:53:47.311Z,4.89
2019-02-25T06:54:27.881Z,4.89
2019-02-25T06:55:08.440Z,4.92
2019-02-25T06:55:49.021Z,4.96
2019-02-25T06:56:29.608Z,4.97
2019-02-25T06:57:10.193Z,4.97
2019-02-25T06:57:50.796Z,4.99
2019-02-25T06:58:31.381Z,4.94
2019-02-25T06:59:11.932Z,4.96
2019-02-25T06:59:52.475Z,4.92
2019-02-25T07:00:33.224Z,4.99
2019-02-25T07:01:13.840Z,4.94
2019-02-25T07:01:54.416Z,4.94
2019-02-25T07:02:34.952Z,4.89
2019-02-25T07:03:15.501Z,4.97
2019-02-25T07:03:56.081Z,4.9
2019-02-25T07:04:36.662Z,5.04
2019-02-25T07:05:17.299Z,5.05
2019-02-25T07:05:57.864Z,4.99
2019-02-25T07:06:38.405Z,4.96
2019-02-25T07:07:18.963Z,5
2019-02-25T07:07:59.568Z,4.97
2019-02-25T07:08:40.126Z,5.05
2019-02-25T07:09:20.691Z,5.05
2019-02-25T07:10:01.256Z,5
2019-02-25T07:10:41.837Z,5.05
2019-02-25T07:11:22.393Z,5.12
2019-02-25T07:12:03.027Z,5.08
2019-02-25T07:12:43.575Z,5.05
2019-02-25T07:13:24.153Z,5.1
2019-02-25T07:14:04.757Z,5.11
2019-02-25T07:14:47.308Z,5.12
2019-02-25T07:15:25.859Z,5.11
2019-02-25T07:16:06.430Z,5.02
2019-02-25T07:16:46.981Z,5.17
2019-02-25T07:17:27.537Z,5.15
2019-02-25T07:18:08.119Z,5.18
2019-02-25T07:18:48.684Z,5.14
2019-02-25T07:19:29.236Z,5.1
2019-02-25T07:20:09.792Z,5.15
2019-02-25T07:20:50.342Z,5.2
2019-02-25T07:21:30.900Z,5.23
2019-02-25T07:22:11.450Z,5.2
2019-02-25T07:22:52.003Z,5.23
2019-02-25T07:23:32.588Z,5.21
2019-02-25T07:24:13.150Z,5.29
2019-02-25T07:24:53.747Z,5.23
2019-02-25T07:25:34.315Z,5.25
2019-02-25T07:26:14.888Z,5.26
2019-02-25T07:26:55.478Z,5.25
2019-02-25T07:27:36.044Z,5.23
2019-02-25T07:28:16.607Z,5.3
2019-02-25T07:28:57.161Z,5.23
2019-02-25T07:29:37.752Z,5.3
2019-02-25T07:30:18.323Z,5.33
2019-02-25T07:30:58.869Z,5.33
2019-02-25T07:31:39.437Z,5.33
2019-02-25T07:32:19.998Z,5.33
2019-02-25T07:33:00.545Z,5.32
2019-02-25T07:33:41.124Z,5.3
2019-02-25T07:34:21.712Z,5.36
2019-02-25T07:35:02.260Z,5.35
2019-02-25T07:35:42.826Z,5.33
2019-02-25T07:36:23.405Z,5.28
2019-02-25T07:37:03.957Z,5.3
2019-02-25T07:37:44.560Z,5.38
2019-02-25T07:38:25.114Z,5.38
2019-02-25T07:39:05.672Z,5.35
2019-02-25T07:39:46.259Z,5.38
2019-02-25T07:40:26.827Z,5.39
2019-02-25T07:41:07.411Z,5.46
2019-02-25T07:41:47.992Z,5.41
2019-02-25T07:42:28.587Z,5.47
2019-02-25T07:43:09.145Z,5.44
2019-02-25T07:43:49.710Z,5.44
2019-02-25T07:44:30.275Z,5.38
2019-02-25T07:45:10.860Z,5.43
2019-02-25T07:45:51.451Z,5.46
2019-02-25T07:46:32.010Z,5.54
2019-02-25T07:47:12.567Z,5.61
2019-02-25T07:47:53.133Z,5.48
2019-02-25T07:48:33.770Z,5.54
2019-02-25T07:49:14.273Z,5.64
2019-02-25T07:49:54.846Z,5.64
2019-02-25T07:50:35.396Z,5.64
2019-02-25T07:51:15.981Z,5.72
2019-02-25T07:51:56.547Z,5.68
2019-02-25T07:52:37.111Z,5.73
2019-02-25T07:53:17.675Z,5.76
2019-02-25T07:53:58.300Z,5.83
2019-02-25T07:54:38.873Z,5.79
2019-02-25T07:55:19.463Z,5.8
2019-02-25T07:56:02.449Z,5.84
2019-02-25T07:56:40.637Z,5.89
2019-02-25T07:57:21.189Z,5.91
2019-02-25T07:58:01.757Z,5.94
2019-02-25T07:58:42.297Z,6.01
2019-02-25T07:59:22.899Z,5.87
2019-02-25T08:00:03.496Z,6.11
2019-02-25T08:00:44.655Z,6.09
2019-02-25T08:01:25.229Z,6.16
2019-02-25T08:02:05.792Z,6.22
2019-02-25T08:02:46.373Z,6.44
2019-02-25T08:03:26.962Z,6.59
2019-02-25T08:04:07.513Z,6.81
2019-02-25T08:04:48.070Z,6.97
2019-02-25T08:05:28.649Z,7.24
2019-02-25T08:06:09.230Z,7.31
2019-02-25T08:06:49.868Z,7.61
2019-02-25T08:07:30.399Z,7.9
2019-02-25T08:08:10.982Z,8.15
2019-02-25T08:08:51.574Z,8.34
2019-02-25T08:09:32.138Z,8.55
2019-02-25T08:10:12.776Z,8.82
2019-02-25T08:10:53.328Z,8.94
2019-02-25T08:11:33.942Z,9.14
2019-02-25T08:12:14.503Z,9.37
2019-02-25T08:12:55.065Z,9.65
2019-02-25T08:13:35.639Z,9.77
2019-02-25T08:14:16.202Z,9.97
2019-02-25T08:14:56.816Z,10.2
2019-02-25T08:15:37.392Z,10.37
2019-02-25T08:16:17.970Z,10.68
2019-02-25T08:16:58.547Z,10.9
2019-02-25T08:17:39.124Z,11.04
2019-02-25T08:18:19.693Z,11.17
2019-02-25T08:19:00.270Z,11.54
2019-02-25T08:19:40.854Z,11.65
2019-02-25T08:20:21.454Z,11.83
2019-02-25T08:21:02.035Z,12.02
2019-02-25T08:21:42.588Z,12.22
2019-02-25T08:22:23.182Z,12.43
2019-02-25T08:23:03.761Z,12.54
2019-02-25T08:23:44.376Z,12.62
2019-02-25T08:24:30.469Z,12.68
2019-02-25T08:25:05.541Z,12.95
2019-02-25T08:25:46.143Z,13.01
2019-02-25T08:26:26.702Z,13.12
2019-02-25T08:27:07.284Z,13.22
2019-02-25T08:27:47.847Z,13.41
2019-02-25T08:28:28.424Z,13.46
2019-02-25T08:29:09.003Z,13.47
2019-02-25T08:29:49.577Z,13.6
2019-02-25T08:30:30.125Z,13.71
2019-02-25T08:31:10.742Z,13.83
2019-02-25T08:31:51.326Z,13.89
2019-02-25T08:32:31.963Z,14.07
2019-02-25T08:33:12.514Z,14.14
2019-02-25T08:33:53.107Z,14.22
2019-02-25T08:34:33.759Z,14.26
2019-02-25T08:35:14.305Z,14.29
2019-02-25T08:35:54.899Z,14.35
2019-02-25T08:36:36.967Z,14.35
2019-02-25T08:37:16.078Z,14.37
2019-02-25T08:37:56.716Z,14.28
2019-02-25T08:38:37.535Z,14.26
2019-02-25T08:39:18.407Z,14.26
2019-02-25T08:39:58.959Z,14.22
2019-02-25T08:40:39.547Z,14.25
2019-02-25T08:41:20.122Z,14.3
2019-02-25T08:42:00.704Z,14.18
2019-02-25T08:42:41.259Z,14.18
2019-02-25T08:43:21.823Z,14.22
2019-02-25T08:44:02.394Z,14.25
2019-02-25T08:44:43.000Z,14.35
2019-02-25T08:45:23.577Z,14.36
2019-02-25T08:46:04.160Z,14.36
2019-02-25T08:46:44.770Z,14.58
2019-02-25T08:47:25.353Z,14.5
2019-02-25T08:48:05.935Z,14.5
2019-02-25T08:48:46.518Z,14.53
2019-02-25T08:49:27.102Z,14.69
2019-02-25T08:50:07.670Z,14.72
2019-02-25T08:50:48.291Z,14.73
2019-02-25T08:51:28.863Z,14.79
2019-02-25T08:52:09.480Z,14.79
2019-02-25T08:52:50.100Z,14.84
2019-02-25T08:53:30.699Z,14.82
2019-02-25T08:54:11.283Z,14.79
2019-02-25T08:54:51.871Z,14.84
2019-02-25T08:55:32.456Z,14.79
2019-02-25T08:56:13.087Z,14.68
2019-02-25T08:56:53.652Z,14.66
2019-02-25T08:57:34.223Z,14.66
2019-02-25T08:58:14.836Z,14.59
2019-02-25T08:58:55.401Z,14.51
2019-02-25T08:59:36.035Z,14.5
2019-02-25T09:00:16.720Z,14.53
2019-02-25T09:00:57.340Z,14.33